Heathsville, Illinois
Current Conditions -  °F | °C
As of 9:55 AM on Saturday 20 Dec 2014 (Local Time) from KRSV Reporting Station
Overcast Overcast  
Wind Chill: 32°   Ceiling: 1300
Heat Index: 32°   Visibility: 10mi
Dew Point: 29°   Wind: 0mph
Humidity: 88%   Direction: NA
Pressure: 30.35"   Gusts: NA
Location:  38.904°N, 87.665°W
Report Text: KRSV 201555Z AUTO 00000KT 10SM BKN013 OVC065 00/M02 A3035 RMK AO2 T00001018
Loading
Personal Weather Stations






























Interactive Weather Map New forecast layout! Learn more

10-Day Weather Forecast

Advertisements
Track Severe Weather on mobile